sensor_id;sensor_type;location;lat;lon;timestamp;P1;durP1;ratioP1;P2;durP2;ratioP2
44358;SDS011;30077;52.474;13.326;2023-01-04T00:00:23;15.98;;;10.65;;
44358;SDS011;30077;52.474;13.326;2023-01-04T00:05:24;18.27;;;12.05;;
44358;SDS011;30077;52.474;13.326;2023-01-04T00:10:24;21.63;;;11.48;;
44358;SDS011;30077;52.474;13.326;2023-01-04T00:15:24;21.13;;;9.98;;
44358;SDS011;30077;52.474;13.326;2023-01-04T00:20:24;18.15;;;10.45;;
44358;SDS011;30077;52.474;13.326;2023-01-04T00:25:25;22.02;;;9.75;;
44358;SDS011;30077;52.474;13.326;2023-01-04T00:30:25;19.85;;;9.82;;
44358;SDS011;30077;52.474;13.326;2023-01-04T00:35:25;15.27;;;9.70;;
44358;SDS011;30077;52.474;13.326;2023-01-04T00:40:26;14.40;;;8.90;;
44358;SDS011;30077;52.474;13.326;2023-01-04T00:45:27;20.90;;;9.57;;
44358;SDS011;30077;52.474;13.326;2023-01-04T00:50:28;16.85;;;9.75;;
44358;SDS011;30077;52.474;13.326;2023-01-04T00:55:28;17.85;;;9.88;;
44358;SDS011;30077;52.474;13.326;2023-01-04T01:00:29;17.25;;;9.23;;
44358;SDS011;30077;52.474;13.326;2023-01-04T01:05:29;16.13;;;9.07;;
44358;SDS011;30077;52.474;13.326;2023-01-04T01:15:33;12.18;;;8.70;;
44358;SDS011;30077;52.474;13.326;2023-01-04T01:20:33;13.90;;;7.82;;
44358;SDS011;30077;52.474;13.326;2023-01-04T01:25:34;12.88;;;8.13;;
44358;SDS011;30077;52.474;13.326;2023-01-04T01:30:37;16.50;;;8.25;;
44358;SDS011;30077;52.474;13.326;2023-01-04T01:35:40;11.63;;;7.32;;
44358;SDS011;30077;52.474;13.326;2023-01-04T01:40:41;10.65;;;7.30;;
44358;SDS011;30077;52.474;13.326;2023-01-04T01:45:41;10.23;;;6.95;;
44358;SDS011;30077;52.474;13.326;2023-01-04T01:51:03;13.70;;;7.50;;
44358;SDS011;30077;52.474;13.326;2023-01-04T01:56:03;13.13;;;7.60;;
44358;SDS011;30077;52.474;13.326;2023-01-04T02:01:06;14.02;;;7.47;;
44358;SDS011;30077;52.474;13.326;2023-01-04T02:06:09;13.38;;;6.80;;
44358;SDS011;30077;52.474;13.326;2023-01-04T02:11:12;14.68;;;7.05;;
44358;SDS011;30077;52.474;13.326;2023-01-04T02:16:14;12.52;;;8.30;;
44358;SDS011;30077;52.474;13.326;2023-01-04T02:21:34;10.02;;;7.43;;
44358;SDS011;30077;52.474;13.326;2023-01-04T02:27:05;13.40;;;7.82;;
44358;SDS011;30077;52.474;13.326;2023-01-04T02:37:44;18.40;;;7.63;;
44358;SDS011;30077;52.474;13.326;2023-01-04T02:48:39;10.23;;;6.78;;
44358;SDS011;30077;52.474;13.326;2023-01-04T02:53:59;14.95;;;8.95;;
44358;SDS011;30077;52.474;13.326;2023-01-04T03:10:09;13.85;;;8.38;;
44358;SDS011;30077;52.474;13.326;2023-01-04T03:15:14;14.25;;;7.05;;
44358;SDS011;30077;52.474;13.326;2023-01-04T03:20:17;12.05;;;7.80;;
44358;SDS011;30077;52.474;13.326;2023-01-04T03:25:21;12.63;;;7.85;;
44358;SDS011;30077;52.474;13.326;2023-01-04T03:30:45;11.93;;;8.07;;
44358;SDS011;30077;52.474;13.326;2023-01-04T03:36:36;15.98;;;7.90;;
44358;SDS011;30077;52.474;13.326;2023-01-04T03:47:19;13.90;;;8.48;;
44358;SDS011;30077;52.474;13.326;2023-01-04T03:53:02;10.35;;;7.20;;
44358;SDS011;30077;52.474;13.326;2023-01-04T03:58:04;15.55;;;8.07;;
44358;SDS011;30077;52.474;13.326;2023-01-04T04:03:05;12.27;;;7.97;;
44358;SDS011;30077;52.474;13.326;2023-01-04T04:08:11;16.50;;;8.57;;
44358;SDS011;30077;52.474;13.326;2023-01-04T04:13:29;14.15;;;7.97;;
44358;SDS011;30077;52.474;13.326;2023-01-04T04:18:29;14.65;;;8.00;;
44358;SDS011;30077;52.474;13.326;2023-01-04T04:23:30;14.57;;;7.75;;
44358;SDS011;30077;52.474;13.326;2023-01-04T04:28:31;14.07;;;7.78;;
44358;SDS011;30077;52.474;13.326;2023-01-04T04:33:31;14.13;;;8.00;;
44358;SDS011;30077;52.474;13.326;2023-01-04T04:38:31;13.90;;;7.63;;
44358;SDS011;30077;52.474;13.326;2023-01-04T04:43:32;13.65;;;8.82;;
44358;SDS011;30077;52.474;13.326;2023-01-04T04:48:33;12.07;;;7.65;;
44358;SDS011;30077;52.474;13.326;2023-01-04T04:53:33;19.40;;;8.13;;
44358;SDS011;30077;52.474;13.326;2023-01-04T04:58:34;10.27;;;7.53;;
44358;SDS011;30077;52.474;13.326;2023-01-04T05:03:35;14.30;;;7.60;;
44358;SDS011;30077;52.474;13.326;2023-01-04T05:08:35;14.35;;;7.47;;
44358;SDS011;30077;52.474;13.326;2023-01-04T05:13:36;14.10;;;7.10;;
44358;SDS011;30077;52.474;13.326;2023-01-04T05:18:36;11.82;;;7.28;;
44358;SDS011;30077;52.474;13.326;2023-01-04T05:23:37;10.80;;;6.67;;
44358;SDS011;30077;52.474;13.326;2023-01-04T05:28:37;10.70;;;6.53;;
44358;SDS011;30077;52.474;13.326;2023-01-04T05:33:37;10.90;;;7.40;;
44358;SDS011;30077;52.474;13.326;2023-01-04T05:38:37;13.60;;;6.45;;
44358;SDS011;30077;52.474;13.326;2023-01-04T05:43:38;10.85;;;6.93;;
44358;SDS011;30077;52.474;13.326;2023-01-04T05:48:38;13.85;;;6.65;;
44358;SDS011;30077;52.474;13.326;2023-01-04T05:53:38;10.98;;;7.13;;
44358;SDS011;30077;52.474;13.326;2023-01-04T05:58:38;12.02;;;6.63;;
44358;SDS011;30077;52.474;13.326;2023-01-04T06:03:39;11.10;;;7.13;;
44358;SDS011;30077;52.474;13.326;2023-01-04T06:08:39;9.20;;;6.63;;
44358;SDS011;30077;52.474;13.326;2023-01-04T06:13:39;8.57;;;5.88;;
44358;SDS011;30077;52.474;13.326;2023-01-04T06:18:39;7.93;;;5.25;;
44358;SDS011;30077;52.474;13.326;2023-01-04T06:23:40;10.15;;;6.20;;
44358;SDS011;30077;52.474;13.326;2023-01-04T06:28:40;12.02;;;5.88;;
44358;SDS011;30077;52.474;13.326;2023-01-04T06:33:40;8.73;;;4.90;;
44358;SDS011;30077;52.474;13.326;2023-01-04T06:38:40;10.38;;;5.25;;
44358;SDS011;30077;52.474;13.326;2023-01-04T06:43:41;10.23;;;5.45;;
44358;SDS011;30077;52.474;13.326;2023-01-04T06:48:41;8.65;;;4.57;;
44358;SDS011;30077;52.474;13.326;2023-01-04T06:53:42;11.07;;;4.22;;
44358;SDS011;30077;52.474;13.326;2023-01-04T06:58:42;9.77;;;4.38;;
44358;SDS011;30077;52.474;13.326;2023-01-04T07:03:42;5.10;;;3.40;;
44358;SDS011;30077;52.474;13.326;2023-01-04T07:08:42;7.03;;;3.75;;
44358;SDS011;30077;52.474;13.326;2023-01-04T07:13:43;8.85;;;4.03;;
44358;SDS011;30077;52.474;13.326;2023-01-04T07:18:44;5.53;;;3.75;;
44358;SDS011;30077;52.474;13.326;2023-01-04T07:23:44;6.70;;;3.87;;
44358;SDS011;30077;52.474;13.326;2023-01-04T07:28:45;6.40;;;3.60;;
44358;SDS011;30077;52.474;13.326;2023-01-04T07:34:04;9.13;;;4.38;;
44358;SDS011;30077;52.474;13.326;2023-01-04T07:39:04;10.20;;;4.25;;
44358;SDS011;30077;52.474;13.326;2023-01-04T07:44:05;6.32;;;3.85;;
44358;SDS011;30077;52.474;13.326;2023-01-04T07:49:09;9.47;;;3.90;;
44358;SDS011;30077;52.474;13.326;2023-01-04T07:54:12;10.02;;;3.75;;
44358;SDS011;30077;52.474;13.326;2023-01-04T07:59:14;8.67;;;4.07;;
44358;SDS011;30077;52.474;13.326;2023-01-04T08:04:15;10.17;;;3.90;;
44358;SDS011;30077;52.474;13.326;2023-01-04T08:09:16;8.65;;;3.97;;
44358;SDS011;30077;52.474;13.326;2023-01-04T08:14:17;12.10;;;4.80;;
44358;SDS011;30077;52.474;13.326;2023-01-04T08:19:18;8.40;;;3.67;;
44358;SDS011;30077;52.474;13.326;2023-01-04T08:24:20;10.02;;;3.78;;
44358;SDS011;30077;52.474;13.326;2023-01-04T08:29:21;11.55;;;3.83;;
44358;SDS011;30077;52.474;13.326;2023-01-04T08:34:21;9.13;;;4.28;;
44358;SDS011;30077;52.474;13.326;2023-01-04T08:39:21;10.60;;;4.32;;
44358;SDS011;30077;52.474;13.326;2023-01-04T08:44:23;8.85;;;4.10;;
44358;SDS011;30077;52.474;13.326;2023-01-04T08:49:24;9.05;;;4.07;;
44358;SDS011;30077;52.474;13.326;2023-01-04T08:54:24;7.15;;;4.40;;
44358;SDS011;30077;52.474;13.326;2023-01-04T08:59:24;7.70;;;4.40;;
44358;SDS011;30077;52.474;13.326;2023-01-04T09:04:24;9.90;;;4.97;;
44358;SDS011;30077;52.474;13.326;2023-01-04T09:09:25;8.57;;;4.55;;
44358;SDS011;30077;52.474;13.326;2023-01-04T09:14:25;11.52;;;5.05;;
44358;SDS011;30077;52.474;13.326;2023-01-04T09:19:25;16.77;;;5.38;;
44358;SDS011;30077;52.474;13.326;2023-01-04T09:24:25;12.45;;;5.20;;
44358;SDS011;30077;52.474;13.326;2023-01-04T09:29:26;11.40;;;5.00;;
44358;SDS011;30077;52.474;13.326;2023-01-04T09:34:26;9.35;;;5.28;;
44358;SDS011;30077;52.474;13.326;2023-01-04T09:39:27;10.00;;;5.35;;
44358;SDS011;30077;52.474;13.326;2023-01-04T09:44:40;27.15;;;14.38;;
44358;SDS011;30077;52.474;13.326;2023-01-04T09:49:52;17.98;;;9.05;;
44358;SDS011;30077;52.474;13.326;2023-01-04T09:54:56;13.63;;;6.85;;
44358;SDS011;30077;52.474;13.326;2023-01-04T10:00:12;18.33;;;9.88;;
44358;SDS011;30077;52.474;13.326;2023-01-04T10:05:21;13.07;;;6.15;;
44358;SDS011;30077;52.474;13.326;2023-01-04T10:26:37;13.05;;;5.65;;
44358;SDS011;30077;52.474;13.326;2023-01-04T10:31:46;19.27;;;7.28;;
44358;SDS011;30077;52.474;13.326;2023-01-04T10:36:53;16.55;;;7.43;;
44358;SDS011;30077;52.474;13.326;2023-01-04T10:41:58;14.18;;;6.97;;
44358;SDS011;30077;52.474;13.326;2023-01-04T10:47:09;15.80;;;7.00;;
44358;SDS011;30077;52.474;13.326;2023-01-04T10:52:21;19.67;;;10.27;;
44358;SDS011;30077;52.474;13.326;2023-01-04T11:02:55;16.02;;;6.53;;
44358;SDS011;30077;52.474;13.326;2023-01-04T11:08:00;17.83;;;10.55;;
44358;SDS011;30077;52.474;13.326;2023-01-04T11:13:01;11.27;;;7.25;;
44358;SDS011;30077;52.474;13.326;2023-01-04T11:18:03;15.95;;;8.70;;
44358;SDS011;30077;52.474;13.326;2023-01-04T11:23:08;9.75;;;5.93;;
44358;SDS011;30077;52.474;13.326;2023-01-04T11:28:14;17.27;;;7.80;;
44358;SDS011;30077;52.474;13.326;2023-01-04T11:33:19;10.65;;;5.78;;
44358;SDS011;30077;52.474;13.326;2023-01-04T11:38:22;10.57;;;5.85;;
44358;SDS011;30077;52.474;13.326;2023-01-04T11:43:24;7.28;;;4.93;;
44358;SDS011;30077;52.474;13.326;2023-01-04T11:48:43;8.82;;;5.63;;
44358;SDS011;30077;52.474;13.326;2023-01-04T11:53:45;8.70;;;4.78;;
44358;SDS011;30077;52.474;13.326;2023-01-04T11:59:02;8.02;;;4.57;;
44358;SDS011;30077;52.474;13.326;2023-01-04T12:04:20;8.57;;;4.75;;
44358;SDS011;30077;52.474;13.326;2023-01-04T12:09:22;9.05;;;4.72;;
44358;SDS011;30077;52.474;13.326;2023-01-04T12:14:24;10.13;;;5.38;;
44358;SDS011;30077;52.474;13.326;2023-01-04T12:19:26;7.70;;;4.38;;
44358;SDS011;30077;52.474;13.326;2023-01-04T12:24:31;11.02;;;5.43;;
44358;SDS011;30077;52.474;13.326;2023-01-04T12:29:43;10.25;;;5.78;;
44358;SDS011;30077;52.474;13.326;2023-01-04T12:34:55;5.90;;;4.43;;
44358;SDS011;30077;52.474;13.326;2023-01-04T12:39:55;8.13;;;4.97;;
44358;SDS011;30077;52.474;13.326;2023-01-04T12:44:57;8.75;;;5.35;;
44358;SDS011;30077;52.474;13.326;2023-01-04T12:49:59;6.75;;;4.35;;
44358;SDS011;30077;52.474;13.326;2023-01-04T12:55:03;6.25;;;4.55;;
44358;SDS011;30077;52.474;13.326;2023-01-04T13:00:22;6.40;;;4.00;;
44358;SDS011;30077;52.474;13.326;2023-01-04T13:05:59;4.80;;;3.88;;
44358;SDS011;30077;52.474;13.326;2023-01-04T13:11:01;8.10;;;4.57;;
44358;SDS011;30077;52.474;13.326;2023-01-04T13:21:41;14.00;;;7.90;;
44358;SDS011;30077;52.474;13.326;2023-01-04T13:26:44;7.70;;;4.75;;
44358;SDS011;30077;52.474;13.326;2023-01-04T13:31:48;9.05;;;4.78;;
44358;SDS011;30077;52.474;13.326;2023-01-04T13:37:15;6.07;;;4.85;;
44358;SDS011;30077;52.474;13.326;2023-01-04T13:42:30;7.03;;;4.28;;
44358;SDS011;30077;52.474;13.326;2023-01-04T13:47:34;6.78;;;4.90;;
44358;SDS011;30077;52.474;13.326;2023-01-04T13:52:38;8.48;;;5.13;;
44358;SDS011;30077;52.474;13.326;2023-01-04T13:57:55;7.35;;;5.38;;
44358;SDS011;30077;52.474;13.326;2023-01-04T14:08:10;8.50;;;5.45;;
44358;SDS011;30077;52.474;13.326;2023-01-04T14:13:17;7.32;;;5.53;;
44358;SDS011;30077;52.474;13.326;2023-01-04T14:18:25;6.35;;;5.18;;
44358;SDS011;30077;52.474;13.326;2023-01-04T14:23:37;8.15;;;5.32;;
44358;SDS011;30077;52.474;13.326;2023-01-04T14:28:37;8.77;;;4.90;;
44358;SDS011;30077;52.474;13.326;2023-01-04T14:33:45;8.65;;;5.20;;
44358;SDS011;30077;52.474;13.326;2023-01-04T14:49:12;6.90;;;4.80;;
44358;SDS011;30077;52.474;13.326;2023-01-04T14:54:13;7.57;;;5.15;;
